createdAt,value
2023-05-01T00:00:06.025Z,0.00
2023-05-01T00:01:05.822Z,0.00
2023-05-01T00:02:05.740Z,0.00
2023-05-01T00:03:05.731Z,0.00
2023-05-01T00:04:05.975Z,0.00
2023-05-01T00:05:05.586Z,0.00
2023-05-01T00:06:05.453Z,0.00
2023-05-01T00:07:05.337Z,0.00
2023-05-01T00:08:05.255Z,0.00
2023-05-01T00:09:05.179Z,0.00
2023-05-01T00:10:05.105Z,0.00
2023-05-01T00:11:05.054Z,0.00
2023-05-01T00:12:04.935Z,0.00
2023-05-01T00:13:04.862Z,0.00
2023-05-01T00:14:04.775Z,0.00
2023-05-01T00:15:04.693Z,0.00
2023-05-01T00:16:04.681Z,0.00
2023-05-01T00:17:04.528Z,0.00
2023-05-01T00:18:04.497Z,0.00
2023-05-01T00:19:04.367Z,0.00
2023-05-01T00:20:04.440Z,0.00
2023-05-01T00:21:04.210Z,0.00
2023-05-01T00:22:04.128Z,0.00
2023-05-01T00:23:04.052Z,0.00
2023-05-01T00:24:03.970Z,0.00
2023-05-01T00:25:03.888Z,0.00
2023-05-01T00:26:03.808Z,0.00
2023-05-01T00:27:03.730Z,0.00
2023-05-01T00:28:03.651Z,0.00
2023-05-01T00:29:03.565Z,0.00
2023-05-01T00:30:03.494Z,0.00
2023-05-01T00:31:03.416Z,0.00
2023-05-01T00:32:03.393Z,0.00
2023-05-01T00:33:03.355Z,0.00
2023-05-01T00:34:03.481Z,0.00
2023-05-01T00:35:03.089Z,0.00
2023-05-01T00:36:03.010Z,0.00
2023-05-01T00:37:02.936Z,0.00
2023-05-01T00:38:03.048Z,0.00
2023-05-01T00:39:03.017Z,0.00
2023-05-01T00:40:02.698Z,0.00
2023-05-01T00:41:02.760Z,0.00
2023-05-01T00:42:02.529Z,0.00
2023-05-01T00:43:02.455Z,0.00
2023-05-01T00:44:02.370Z,0.00
2023-05-01T00:45:02.287Z,0.00
2023-05-01T00:46:02.258Z,0.00
2023-05-01T00:47:02.182Z,0.00
2023-05-01T00:48:02.225Z,0.00
2023-05-01T00:49:01.979Z,0.00
2023-05-01T00:50:01.891Z,0.00
2023-05-01T00:51:02.109Z,0.00
2023-05-01T00:52:01.728Z,0.00
2023-05-01T00:53:01.650Z,0.00
2023-05-01T00:54:01.605Z,0.00
2023-05-01T00:55:01.554Z,0.00
2023-05-01T00:56:01.405Z,0.00
2023-05-01T00:57:01.325Z,0.00
2023-05-01T00:58:01.268Z,0.00
2023-05-01T00:59:01.179Z,0.00
2023-05-01T01:00:01.296Z,0.00
2023-05-01T01:01:01.023Z,0.00
2023-05-01T01:02:00.927Z,0.00
2023-05-01T01:03:00.888Z,0.00
2023-05-01T01:04:00.825Z,0.00
2023-05-01T01:05:00.742Z,0.00
2023-05-01T01:06:00.627Z,0.00
2023-05-01T01:07:00.526Z,0.00
2023-05-01T01:08:00.456Z,0.00
2023-05-01T01:09:00.856Z,0.00
2023-05-01T01:10:00.330Z,0.00
2023-05-01T01:11:00.199Z,0.00
2023-05-01T01:12:00.153Z,0.00
2023-05-01T01:13:00.040Z,0.00
2023-05-01T01:13:59.966Z,0.00
2023-05-01T01:14:59.903Z,0.00
2023-05-01T01:15:59.801Z,0.00
2023-05-01T01:16:59.739Z,0.00
2023-05-01T01:17:59.977Z,0.00
2023-05-01T01:18:59.706Z,0.00
2023-05-01T01:19:59.505Z,0.00
2023-05-01T01:20:59.396Z,0.00
2023-05-01T01:21:59.315Z,0.00
2023-05-01T01:22:59.237Z,0.00
2023-05-01T01:23:59.163Z,0.00
2023-05-01T01:24:59.094Z,0.00
2023-05-01T01:25:59.015Z,0.00
2023-05-01T01:26:58.915Z,0.00
2023-05-01T01:27:58.837Z,0.00
2023-05-01T01:28:58.754Z,0.00
2023-05-01T01:29:58.826Z,0.00
2023-05-01T01:30:58.644Z,0.00
2023-05-01T01:31:58.622Z,0.00
2023-05-01T01:32:58.532Z,0.00
2023-05-01T01:33:58.354Z,0.00
2023-05-01T01:34:58.269Z,0.00
2023-05-01T01:35:58.226Z,0.00
2023-05-01T01:36:58.109Z,0.00
2023-05-01T01:37:58.032Z,0.00
2023-05-01T01:38:57.950Z,0.00
2023-05-01T01:39:58.151Z,0.00
2023-05-01T01:40:57.789Z,0.00
2023-05-01T01:41:57.759Z,0.00
2023-05-01T01:42:57.626Z,0.00
2023-05-01T01:43:57.548Z,0.00
2023-05-01T01:44:57.476Z,0.00
2023-05-01T01:45:57.433Z,0.00
2023-05-01T01:46:57.304Z,0.00
2023-05-01T01:47:57.249Z,0.00
2023-05-01T01:48:57.194Z,0.00
2023-05-01T01:49:57.293Z,0.00
2023-05-01T01:50:56.989Z,0.00
2023-05-01T01:51:56.932Z,0.00
2023-05-01T01:52:56.820Z,0.00
2023-05-01T01:53:56.745Z,0.00
2023-05-01T01:54:56.661Z,0.00
2023-05-01T01:55:56.599Z,0.00
2023-05-01T01:56:56.499Z,0.00
2023-05-01T01:57:56.439Z,0.00
2023-05-01T01:58:56.335Z,0.00
2023-05-01T01:59:56.465Z,0.00
2023-05-01T02:00:56.270Z,0.00
2023-05-01T02:04:21.727Z,0.00
2023-05-01T02:05:21.656Z,0.00
2023-05-01T02:06:21.624Z,0.00
2023-05-01T02:07:21.499Z,0.00
2023-05-01T02:08:21.406Z,0.00
2023-05-01T02:09:21.337Z,0.00
2023-05-01T02:10:21.254Z,0.00
2023-05-01T02:11:21.217Z,0.00
2023-05-01T02:12:21.093Z,0.00
2023-05-01T02:13:21.001Z,0.00
2023-05-01T02:14:20.917Z,0.00
2023-05-01T02:15:20.855Z,0.00
2023-05-01T02:16:20.802Z,0.00
2023-05-01T02:17:20.712Z,0.00
2023-05-01T02:18:20.593Z,0.00
2023-05-01T02:19:20.513Z,0.00
2023-05-01T02:20:20.430Z,0.00
2023-05-01T02:21:20.356Z,0.00
2023-05-01T02:22:20.275Z,0.00
2023-05-01T02:23:20.257Z,0.00
2023-05-01T02:24:20.510Z,0.00
2023-05-01T02:25:20.031Z,0.00
2023-05-01T02:26:19.947Z,0.00
2023-05-01T02:27:19.867Z,0.00
2023-05-01T02:28:19.788Z,0.00
2023-05-01T02:29:23.539Z,0.00
2023-05-01T02:30:19.628Z,0.00
2023-05-01T07:14:00.789Z,4932.00
2023-05-01T07:15:00.679Z,4832.00
2023-05-01T07:16:00.617Z,4728.00
2023-05-01T07:17:00.735Z,4648.00
2023-05-01T07:18:00.466Z,4572.00
2023-05-01T07:19:00.367Z,4488.00
2023-05-01T07:20:00.277Z,4420.00
2023-05-01T07:21:00.215Z,4404.00
2023-05-01T07:22:00.134Z,4432.00
2023-05-01T07:23:00.052Z,4540.00
2023-05-01T07:23:59.975Z,4644.00
2023-05-01T07:24:59.890Z,4728.00
2023-05-01T07:25:59.808Z,4764.00
2023-05-01T07:26:59.732Z,4744.00
2023-05-01T07:27:59.656Z,4684.00
2023-05-01T07:28:59.580Z,4608.00
2023-05-01T07:29:59.524Z,4540.00
2023-05-01T07:30:59.427Z,4452.00
2023-05-01T07:31:59.368Z,4436.00
2023-05-01T07:32:59.414Z,4544.00
2023-05-01T07:33:59.189Z,4704.00
2023-05-01T07:34:59.113Z,4896.00
2023-05-01T07:35:59.034Z,5052.00
2023-05-01T07:36:58.957Z,5160.00
2023-05-01T07:37:58.880Z,5224.00
2023-05-01T07:38:58.803Z,5316.00
2023-05-01T07:39:58.955Z,5376.00
2023-05-01T07:40:58.642Z,5444.00
2023-05-01T07:41:58.566Z,5532.00
2023-05-01T07:42:58.490Z,5624.00
2023-05-01T07:43:58.409Z,5736.00
2023-05-01T07:44:58.331Z,5836.00
2023-05-01T07:45:58.362Z,5916.00
2023-05-01T07:46:58.178Z,5996.00
2023-05-01T07:47:58.154Z,6068.00
2023-05-01T07:48:58.038Z,6160.00
2023-05-01T07:49:58.209Z,6268.00
2023-05-01T07:50:57.873Z,6312.00
2023-05-01T07:51:58.144Z,6300.00
2023-05-01T07:52:57.716Z,6208.00
2023-05-01T07:53:57.634Z,5944.00
2023-05-01T09:35:23.475Z,7728.00
2023-05-01T09:36:23.119Z,8020.00
2023-05-01T09:37:23.036Z,8300.00
2023-05-01T09:38:23.272Z,8608.00
2023-05-01T09:39:22.882Z,8880.00
2023-05-01T09:40:22.918Z,8948.00
2023-05-01T09:41:22.748Z,8936.00
2023-05-01T09:42:22.679Z,8872.00
2023-05-01T09:43:22.586Z,8884.00
2023-05-01T09:44:22.508Z,8980.00
2023-05-01T09:45:22.438Z,9096.00
2023-05-01T09:46:22.390Z,9156.00
2023-05-01T09:47:22.300Z,9112.00
2023-05-01T09:48:22.210Z,9036.00
2023-05-01T09:49:22.132Z,9136.00
2023-05-01T09:50:22.050Z,9264.00
2023-05-01T09:51:22.040Z,9348.00
2023-05-01T09:52:21.897Z,9188.00
2023-05-01T09:53:21.824Z,8912.00
2023-05-01T09:54:21.748Z,9156.00
2023-05-01T09:55:23.079Z,9664.00
2023-05-01T09:56:21.900Z,10000.00
2023-05-01T09:57:21.529Z,9916.00
2023-05-01T09:58:21.447Z,9852.00
2023-05-01T09:59:21.828Z,10028.00
2023-05-01T10:00:21.309Z,10376.00
2023-05-01T10:01:21.261Z,10352.00
2023-05-01T10:02:21.218Z,10084.00
2023-05-01T10:03:21.111Z,9656.00
2023-05-01T10:04:21.002Z,9008.00
2023-05-01T10:05:20.930Z,8016.00
2023-05-01T10:06:20.875Z,7224.00
2023-05-01T10:07:20.796Z,6632.00
2023-05-01T11:12:40.142Z,13532.00
2023-05-01T11:13:40.058Z,13604.00
2023-05-01T11:14:39.975Z,14252.00
2023-05-01T11:15:39.899Z,14604.00
2023-05-01T11:16:40.008Z,14176.00
2023-05-01T11:17:39.822Z,13188.00
2023-05-01T11:18:39.677Z,12844.00
2023-05-01T11:19:39.610Z,13564.00
2023-05-01T11:20:39.635Z,14896.00
2023-05-01T11:21:39.461Z,16672.00
2023-05-01T11:22:39.384Z,17536.00
2023-05-01T11:23:39.313Z,17408.00
2023-05-01T11:24:39.243Z,17824.00
2023-05-01T11:25:39.167Z,16544.00
2023-05-01T11:26:41.739Z,15412.00
2023-05-01T11:27:39.018Z,14736.00
2023-05-01T11:28:38.967Z,14316.00
2023-05-01T11:29:38.873Z,13476.00
2023-05-01T12:14:50.680Z,44544.00
2023-05-01T12:15:50.402Z,43968.00
2023-05-01T12:17:50.300Z,44896.00
2023-05-01T12:18:50.191Z,40416.00
2023-05-01T12:19:50.115Z,35520.00
2023-05-01T12:22:50.329Z,43072.00
2023-05-01T12:23:49.847Z,52192.00
2023-05-01T12:24:52.392Z,60064.00
2023-05-01T12:25:49.705Z,66048.00
2023-05-01T12:26:49.642Z,73760.00
2023-05-01T12:27:49.566Z,69888.00
2023-05-01T12:28:49.507Z,71744.00
2023-05-01T12:29:49.427Z,62976.00
2023-05-01T12:30:49.505Z,65440.00
2023-05-01T12:32:31.817Z,56864.00
2023-05-01T12:33:31.732Z,55328.00
2023-05-01T12:35:49.402Z,46688.00
2023-05-01T12:36:49.488Z,60160.00
2023-05-01T12:37:49.218Z,60032.00
2023-05-01T12:38:49.175Z,70336.00
2023-05-01T12:39:49.085Z,67008.00
2023-05-01T12:41:49.367Z,74400.00
2023-05-01T12:42:48.887Z,77824.00
2023-05-01T12:43:49.435Z,76288.00
2023-05-01T12:44:48.761Z,50720.00
2023-05-01T12:45:48.697Z,31360.00
2023-05-01T12:46:48.957Z,38720.00
2023-05-01T12:47:48.594Z,32448.00
2023-05-01T12:48:48.499Z,20608.00
2023-05-01T12:49:48.740Z,23904.00
2023-05-01T12:50:49.864Z,21088.00
2023-05-01T12:51:48.311Z,17728.00
2023-05-01T12:52:48.276Z,15168.00
2023-05-01T12:53:48.520Z,14116.00
2023-05-01T12:54:48.142Z,13948.00
2023-05-01T12:55:48.044Z,13860.00
2023-05-01T12:56:51.812Z,14392.00
2023-05-01T12:57:48.260Z,12964.00
2023-05-01T12:58:47.841Z,12448.00
2023-05-01T12:59:47.778Z,11900.00
2023-05-01T13:06:39.794Z,19616.00
2023-05-01T13:07:39.655Z,31968.00
2023-05-01T13:08:39.589Z,48544.00
2023-05-01T13:09:39.511Z,49696.00
2023-05-01T13:10:39.441Z,32672.00
2023-05-01T13:11:39.439Z,41152.00
2023-05-01T13:12:39.302Z,24768.00
2023-05-01T13:13:39.237Z,24512.00
2023-05-01T13:14:39.229Z,34272.00
2023-05-01T13:15:39.097Z,34816.00
2023-05-01T13:16:39.051Z,17600.00
2023-05-01T13:17:38.998Z,18912.00
2023-05-01T13:18:38.893Z,19552.00
2023-05-01T13:19:38.845Z,33952.00
2023-05-01T13:20:38.755Z,33984.00
2023-05-01T13:21:38.687Z,35968.00
2023-05-01T13:22:38.674Z,50432.00
2023-05-01T13:23:38.605Z,48000.00
2023-05-01T13:24:38.484Z,36288.00
2023-05-01T13:25:38.416Z,21408.00
2023-05-01T13:27:38.720Z,15364.00
2023-05-01T13:28:38.250Z,14560.00
2023-05-01T13:29:38.142Z,13088.00
2023-05-01T13:30:38.110Z,12108.00
2023-05-01T13:32:38.454Z,9300.00
2023-05-01T13:33:38.621Z,8144.00
2023-05-01T13:38:40.282Z,5268.00
2023-05-01T13:39:38.458Z,4992.00
2023-05-01T13:40:37.378Z,4720.00
2023-05-01T13:41:37.305Z,4524.00
2023-05-01T13:42:37.237Z,4332.00
2023-05-01T13:43:37.318Z,3976.00
2023-05-01T13:45:19.927Z,3536.00
2023-05-01T13:46:19.796Z,3492.00
2023-05-01T13:47:19.716Z,3572.00
2023-05-01T13:48:19.825Z,3864.00
2023-05-01T13:49:19.542Z,4216.00
2023-05-01T13:50:19.890Z,4760.00
2023-05-01T13:51:19.389Z,5388.00
2023-05-01T13:54:31.769Z,4816.00
2023-05-01T13:59:40.499Z,4920.00
2023-05-01T14:00:40.424Z,4380.00
2023-05-01T14:01:40.398Z,3920.00
2023-05-01T14:02:42.961Z,3800.00
2023-05-01T14:06:22.981Z,3424.00
2023-05-01T14:07:22.610Z,3516.00
2023-05-01T14:08:22.539Z,3408.00
2023-05-01T14:09:22.780Z,3192.00
2023-05-01T14:10:22.410Z,3116.00
2023-05-01T14:11:22.320Z,3248.00
2023-05-01T14:35:25.863Z,8320.00
2023-05-01T14:36:25.769Z,9260.00
2023-05-01T14:37:25.692Z,21568.00
2023-05-01T14:38:25.632Z,18272.00
2023-05-01T14:39:25.544Z,21728.00
2023-05-01T14:40:25.475Z,25440.00
2023-05-01T14:41:25.411Z,28288.00
2023-05-01T14:42:25.327Z,68544.00
2023-05-01T14:43:25.248Z,66464.00
2023-05-01T14:44:25.179Z,63872.00
2023-05-01T14:45:25.106Z,61184.00
2023-05-01T14:46:25.071Z,56224.00
2023-05-01T14:47:24.992Z,50944.00
2023-05-01T14:48:24.893Z,45888.00
2023-05-01T14:49:24.831Z,42624.00
2023-05-01T14:50:24.767Z,40736.00
2023-05-01T14:51:24.709Z,39360.00
2023-05-01T14:52:24.661Z,37792.00
2023-05-01T14:53:24.561Z,36544.00
2023-05-01T14:58:20.122Z,32416.00
2023-05-01T14:59:20.036Z,31904.00
2023-05-01T15:00:19.982Z,31712.00
2023-05-01T15:01:20.132Z,31392.00
2023-05-01T15:02:19.936Z,31072.00
2023-05-01T15:03:20.259Z,30624.00
2023-05-01T15:04:19.813Z,30176.00
2023-05-01T15:05:20.073Z,29952.00
2023-05-01T15:06:19.628Z,29600.00
2023-05-01T15:07:19.526Z,29344.00
2023-05-01T15:08:19.436Z,28960.00
2023-05-01T15:09:19.912Z,27456.00
2023-05-01T15:10:19.311Z,27232.00
2023-05-01T15:11:19.277Z,27264.00
2023-05-01T15:12:19.209Z,27488.00
2023-05-01T15:13:19.108Z,26656.00
2023-05-01T15:14:19.046Z,26560.00
2023-05-01T15:15:21.605Z,26016.00
2023-05-01T15:16:19.036Z,25248.00
2023-05-01T15:17:18.889Z,21984.00
2023-05-01T15:18:21.404Z,23296.00
2023-05-01T15:19:18.720Z,24832.00
2023-05-01T15:20:18.655Z,25280.00
2023-05-01T15:21:18.591Z,25024.00
2023-05-01T15:25:14.760Z,24480.00
2023-05-01T15:27:51.775Z,23808.00
2023-05-01T15:31:24.807Z,22848.00
2023-05-01T15:33:24.663Z,22432.00
2023-05-01T15:34:24.558Z,22912.00
2023-05-01T15:35:24.560Z,23040.00
2023-05-01T15:36:24.428Z,22368.00
2023-05-01T15:37:24.366Z,22240.00
2023-05-01T15:38:24.302Z,21664.00
2023-05-01T15:39:24.239Z,16704.00
2023-05-01T15:40:24.190Z,16128.00
2023-05-01T15:41:24.105Z,12144.00
2023-05-01T15:42:24.038Z,7848.00
2023-05-01T15:43:23.976Z,6472.00
2023-05-01T15:44:23.910Z,6008.00
2023-05-01T15:45:23.900Z,4940.00
2023-05-01T15:46:23.963Z,4792.00
2023-05-01T15:47:23.752Z,4896.00
2023-05-01T15:48:23.645Z,5000.00
2023-05-01T15:49:23.580Z,5224.00
2023-05-01T15:50:23.512Z,5472.00
2023-05-01T15:51:23.442Z,6364.00
2023-05-01T15:52:23.382Z,9996.00
2023-05-01T15:53:23.325Z,13412.00
2023-05-01T15:54:23.436Z,16512.00
2023-05-01T15:55:23.194Z,13856.00
2023-05-01T15:56:23.122Z,10600.00
2023-05-01T15:57:23.032Z,7324.00
2023-05-01T15:58:22.960Z,6384.00
2023-05-01T15:59:22.892Z,6188.00
2023-05-01T16:01:22.872Z,6880.00
2023-05-01T16:02:22.793Z,15904.00
2023-05-01T16:03:22.773Z,18464.00
2023-05-01T16:04:22.539Z,18816.00
2023-05-01T16:06:23.642Z,10548.00
2023-05-01T16:07:22.333Z,9136.00
2023-05-01T16:08:22.262Z,8052.00
2023-05-01T16:09:22.192Z,12164.00
2023-05-01T16:10:22.122Z,11228.00
2023-05-01T16:11:22.105Z,6336.00
2023-05-01T16:12:22.083Z,4388.00
2023-05-01T16:13:21.918Z,4060.00
2023-05-01T16:14:21.841Z,3368.00
2023-05-01T16:15:21.771Z,2972.00
2023-05-01T16:17:19.199Z,2760.00
2023-05-01T16:18:21.756Z,2736.00
2023-05-01T16:19:19.060Z,2872.00
2023-05-01T16:20:19.007Z,3548.00
2023-05-01T16:21:20.043Z,4892.00
2023-05-01T16:22:18.849Z,6752.00
2023-05-01T16:23:18.776Z,9832.00
2023-05-01T16:24:18.706Z,10612.00
2023-05-01T16:25:18.649Z,12696.00
2023-05-01T16:26:18.563Z,12916.00
2023-05-01T16:27:18.502Z,12980.00
2023-05-01T16:28:18.443Z,12900.00
2023-05-01T16:29:18.352Z,12648.00
2023-05-01T16:30:18.273Z,12236.00
2023-05-01T16:31:27.215Z,12236.00
2023-05-01T16:32:18.260Z,11812.00
2023-05-01T16:33:19.024Z,11352.00
2023-05-01T16:34:18.002Z,9164.00
2023-05-01T16:35:17.959Z,6732.00
2023-05-01T16:42:09.894Z,4472.00
2023-05-01T16:43:09.776Z,4164.00
2023-05-01T16:44:10.019Z,3920.00
2023-05-01T16:45:09.635Z,3792.00
2023-05-01T16:46:09.645Z,3824.00
2023-05-01T16:47:09.485Z,3792.00
2023-05-01T16:48:10.865Z,3728.00
2023-05-01T16:49:09.342Z,3620.00
2023-05-01T16:54:18.113Z,3924.00
2023-05-01T16:55:18.033Z,4332.00
2023-05-01T16:56:17.977Z,4824.00
2023-05-01T16:57:17.909Z,5336.00
2023-05-01T16:58:17.833Z,5664.00
2023-05-01T16:59:17.750Z,5804.00
2023-05-01T17:00:17.902Z,5880.00
2023-05-01T17:01:17.712Z,5824.00
2023-05-01T17:02:17.772Z,5732.00
2023-05-01T17:03:17.669Z,5588.00
2023-05-01T17:04:17.430Z,5308.00
2023-05-01T17:05:17.363Z,4984.00
2023-05-01T17:06:17.264Z,4692.00
2023-05-01T17:07:17.151Z,4520.00
2023-05-01T17:08:17.097Z,4312.00
2023-05-01T17:09:17.002Z,4068.00
2023-05-01T17:10:16.930Z,3704.00
2023-05-01T17:18:52.435Z,1408.00
2023-05-01T17:19:52.316Z,1436.00
2023-05-01T17:20:52.310Z,1500.00
2023-05-01T17:21:52.181Z,1576.00
2023-05-01T17:22:52.091Z,1520.00
2023-05-01T17:23:52.022Z,1420.00
2023-05-01T17:24:51.947Z,1336.00
2023-05-01T17:25:52.073Z,1280.00
2023-05-01T17:26:52.097Z,1260.00
2023-05-01T17:27:51.726Z,1256.00
2023-05-01T17:28:51.651Z,1260.00
2023-05-01T17:35:51.145Z,1200.00
2023-05-01T17:36:51.078Z,1188.00
2023-05-01T17:37:50.979Z,1164.00
2023-05-01T17:41:16.760Z,1112.00
2023-05-01T17:42:16.522Z,1108.00
2023-05-01T17:43:16.447Z,1108.00
2023-05-01T17:44:16.384Z,1100.00
2023-05-01T17:45:16.304Z,1092.00
2023-05-01T17:46:16.290Z,1076.00
2023-05-01T17:47:16.142Z,1048.00
2023-05-01T17:49:03.560Z,956.00
2023-05-01T17:50:03.484Z,912.00
2023-05-01T17:51:03.424Z,880.00
2023-05-01T17:52:03.329Z,856.00
2023-05-01T17:53:03.253Z,828.00
2023-05-01T17:54:03.173Z,788.00
2023-05-01T17:55:03.094Z,756.00
2023-05-01T17:56:03.022Z,740.00
2023-05-01T17:57:50.825Z,712.00
2023-05-01T17:58:50.394Z,700.00
2023-05-01T17:59:50.273Z,688.00
2023-05-01T18:00:50.276Z,664.00
2023-05-01T18:01:50.221Z,648.00
2023-05-01T18:02:50.120Z,632.00
2023-05-01T18:09:42.029Z,568.00
2023-05-01T18:10:42.298Z,564.00
2023-05-01T18:11:41.760Z,564.00
2023-05-01T18:12:41.679Z,552.00
2023-05-01T18:13:42.041Z,536.00
2023-05-01T18:14:41.524Z,524.00
2023-05-01T18:15:41.449Z,512.00
2023-05-01T18:16:41.386Z,500.00
2023-05-01T18:17:41.309Z,480.00
2023-05-01T18:18:41.220Z,456.00
2023-05-01T18:19:41.131Z,432.00
2023-05-01T18:20:41.061Z,416.00
2023-05-01T18:21:40.977Z,392.00
2023-05-01T18:22:40.896Z,372.00
2023-05-01T18:23:40.826Z,352.00
2023-05-01T18:24:40.745Z,332.00
2023-05-01T18:25:40.690Z,312.00
2023-05-01T18:26:40.590Z,292.00
2023-05-01T18:27:40.518Z,272.00
2023-05-01T18:28:43.050Z,252.00
2023-05-01T18:29:40.347Z,236.00
2023-05-01T18:31:22.808Z,212.00
2023-05-01T18:32:27.977Z,200.00
2023-05-01T18:33:22.655Z,184.00
2023-05-01T18:34:22.759Z,176.00
2023-05-01T18:36:14.922Z,156.00
2023-05-01T18:37:15.196Z,144.00
2023-05-01T18:38:14.781Z,128.00
2023-05-01T18:39:14.889Z,116.00
2023-05-01T18:40:14.608Z,104.00
2023-05-01T18:41:14.555Z,92.00
2023-05-01T18:42:14.457Z,76.00
2023-05-01T18:43:14.389Z,68.00
2023-05-01T18:44:14.302Z,64.00
2023-05-01T18:45:14.314Z,56.00
2023-05-01T18:46:14.182Z,52.00
2023-05-01T18:47:14.057Z,48.00
2023-05-01T18:48:14.442Z,40.00
2023-05-01T18:49:13.902Z,36.00
2023-05-01T18:50:13.868Z,32.00
2023-05-01T18:51:13.947Z,28.00
2023-05-01T18:52:13.660Z,24.00
2023-05-01T18:57:22.680Z,12.00
2023-05-01T18:58:22.492Z,12.00
2023-05-01T18:59:22.410Z,8.00
2023-05-01T19:00:22.344Z,4.00
2023-05-01T19:01:22.292Z,4.00
2023-05-01T19:02:22.222Z,4.00
2023-05-01T19:03:22.092Z,4.00
2023-05-01T19:04:22.045Z,4.00
2023-05-01T19:05:21.949Z,4.00
2023-05-01T19:06:21.894Z,4.00
2023-05-01T19:07:21.777Z,4.00
2023-05-01T19:10:04.537Z,4.00
2023-05-01T19:11:04.053Z,4.00
2023-05-01T19:12:03.968Z,0.00
2023-05-01T19:13:03.869Z,0.00
2023-05-01T19:14:03.781Z,0.00
2023-05-01T19:15:03.691Z,0.00
2023-05-01T19:16:03.635Z,0.00
2023-05-01T19:17:03.532Z,0.00
2023-05-01T19:18:03.494Z,0.00
2023-05-01T19:19:03.380Z,0.00
2023-05-01T19:20:03.292Z,0.00
2023-05-01T19:21:03.274Z,0.00
2023-05-01T19:22:03.195Z,0.00
2023-05-01T19:23:03.322Z,0.00
2023-05-01T19:24:03.361Z,0.00
2023-05-01T19:25:03.268Z,0.00
2023-05-01T19:26:02.846Z,0.00
2023-05-01T19:27:02.742Z,0.00
2023-05-01T19:29:02.924Z,0.00
2023-05-01T19:31:02.422Z,0.00
2023-05-01T19:32:02.392Z,0.00
2023-05-01T19:33:02.582Z,0.00
2023-05-01T19:34:02.423Z,0.00
2023-05-01T19:35:02.103Z,0.00
2023-05-01T19:36:02.025Z,0.00
2023-05-01T19:37:02.018Z,0.00
2023-05-01T19:38:01.872Z,0.00
2023-05-01T19:39:01.820Z,0.00
2023-05-01T19:41:01.665Z,0.00
2023-05-01T19:42:01.553Z,0.00
2023-05-01T19:43:01.830Z,0.00
2023-05-01T19:44:01.432Z,0.00
2023-05-01T19:45:01.548Z,0.00
2023-05-01T19:46:01.335Z,0.00
2023-05-01T19:47:01.167Z,0.00
2023-05-01T19:48:01.190Z,0.00
2023-05-01T19:49:01.005Z,0.00
2023-05-01T19:50:01.438Z,0.00
2023-05-01T19:51:00.850Z,0.00
2023-05-01T19:52:00.763Z,0.00
2023-05-01T19:53:01.038Z,0.00
2023-05-01T19:54:00.600Z,0.00
2023-05-01T19:55:00.522Z,0.00
2023-05-01T19:56:00.517Z,0.00
2023-05-01T19:57:00.400Z,0.00
2023-05-01T19:58:00.296Z,0.00
2023-05-01T20:14:58.989Z,0.00
2023-05-01T20:15:58.883Z,0.00
2023-05-01T20:16:58.874Z,0.00
2023-05-01T20:17:58.769Z,0.00
2023-05-01T20:20:01.353Z,0.00
2023-05-01T20:21:01.059Z,0.00
2023-05-01T20:22:01.071Z,0.00
2023-05-01T20:23:00.960Z,0.00
2023-05-01T20:24:00.841Z,0.00
2023-05-01T20:25:00.800Z,0.00
2023-05-01T20:26:00.962Z,0.00
2023-05-01T20:27:00.599Z,0.00
2023-05-01T20:28:00.507Z,0.00
2023-05-01T20:29:00.432Z,0.00
2023-05-01T20:30:00.785Z,0.00
2023-05-01T20:31:00.379Z,0.00
2023-05-01T20:32:00.201Z,0.00
2023-05-01T20:33:00.193Z,0.00
2023-05-01T20:34:00.157Z,0.00
2023-05-01T20:34:59.980Z,0.00
2023-05-01T20:35:59.883Z,0.00
2023-05-01T20:36:59.835Z,0.00
2023-05-01T20:37:59.766Z,0.00
2023-05-01T20:38:59.650Z,0.00
2023-05-01T20:39:59.767Z,0.00
2023-05-01T20:40:59.501Z,0.00
2023-05-01T20:41:59.435Z,0.00
2023-05-01T20:42:59.344Z,0.00
2023-05-01T20:43:59.263Z,0.00
2023-05-01T20:44:59.331Z,0.00
2023-05-01T20:45:59.145Z,0.00
2023-05-01T20:46:59.048Z,0.00
2023-05-01T20:47:58.996Z,0.00
2023-05-01T20:48:58.866Z,0.00
2023-05-01T20:49:59.203Z,0.00
2023-05-01T20:50:59.111Z,0.00
2023-05-01T20:51:58.770Z,0.00
2023-05-01T20:52:58.610Z,0.00
2023-05-01T20:53:58.597Z,0.00
2023-05-01T20:54:58.407Z,0.00
2023-05-01T20:55:58.321Z,0.00
2023-05-01T20:56:58.240Z,0.00
2023-05-01T20:57:58.162Z,0.00
2023-05-01T20:58:58.085Z,0.00
2023-05-01T20:59:58.534Z,0.00
2023-05-01T21:00:57.933Z,0.00
2023-05-01T21:01:57.872Z,0.00
2023-05-01T21:02:58.104Z,0.00
2023-05-01T21:03:57.807Z,0.00
2023-05-01T21:04:57.615Z,0.00
2023-05-01T21:05:58.006Z,0.00
2023-05-01T21:06:57.535Z,0.00
2023-05-01T21:07:57.385Z,0.00
2023-05-01T21:08:57.601Z,0.00
2023-05-01T21:09:57.700Z,0.00
2023-05-01T21:10:57.151Z,0.00
2023-05-01T21:11:57.420Z,0.00
2023-05-01T21:12:56.990Z,0.00
2023-05-01T21:13:56.911Z,0.00
2023-05-01T21:14:56.829Z,0.00
2023-05-01T21:15:56.835Z,0.00
2023-05-01T21:16:56.677Z,0.00
2023-05-01T21:17:56.607Z,0.00
2023-05-01T21:18:56.882Z,0.00
2023-05-01T21:19:56.518Z,0.00
2023-05-01T21:20:56.362Z,0.00
2023-05-01T21:21:56.589Z,0.00
2023-05-01T21:22:56.205Z,0.00
2023-05-01T21:23:56.128Z,0.00
2023-05-01T21:24:56.394Z,0.00
2023-05-01T21:25:55.966Z,0.00
2023-05-01T21:26:55.894Z,0.00
2023-05-01T21:27:55.810Z,0.00
2023-05-01T21:28:55.754Z,0.00
2023-05-01T21:29:55.659Z,0.00
2023-05-01T21:30:55.582Z,0.00
2023-05-01T21:31:55.619Z,0.00
2023-05-01T21:32:55.438Z,0.00
2023-05-01T21:33:55.332Z,0.00
2023-05-01T21:34:55.452Z,0.00
2023-05-01T21:35:55.172Z,0.00
2023-05-01T21:36:55.093Z,0.00
2023-05-01T21:37:55.171Z,0.00
2023-05-01T21:38:54.935Z,0.00
2023-05-01T21:39:54.859Z,0.00
2023-05-01T21:41:42.267Z,0.00
2023-05-01T21:42:42.330Z,0.00
2023-05-01T21:43:42.102Z,0.00
2023-05-01T21:44:42.026Z,0.00
2023-05-01T21:45:42.551Z,0.00
2023-05-01T21:46:41.898Z,0.00
2023-05-01T21:47:41.815Z,0.00
2023-05-01T21:48:41.708Z,0.00
2023-05-01T21:49:41.651Z,0.00
2023-05-01T21:50:41.678Z,0.00
2023-05-01T21:51:41.464Z,0.00
2023-05-01T21:52:41.396Z,0.00
2023-05-01T21:53:41.309Z,0.00
2023-05-01T21:54:41.230Z,0.00
2023-05-01T21:55:41.146Z,0.00
2023-05-01T21:56:41.089Z,0.00
2023-05-01T21:57:41.040Z,0.00
2023-05-01T21:58:40.912Z,0.00
2023-05-01T21:59:40.829Z,0.00
2023-05-01T22:00:40.820Z,0.00
2023-05-01T22:01:40.994Z,0.00
2023-05-01T22:02:40.694Z,0.00
2023-05-01T22:03:40.614Z,0.00
2023-05-01T22:04:40.435Z,0.00
2023-05-01T22:05:40.353Z,0.00
2023-05-01T22:06:40.488Z,0.00
2023-05-01T22:07:40.192Z,0.00
2023-05-01T22:08:40.116Z,0.00
2023-05-01T22:09:40.037Z,0.00
2023-05-01T22:10:39.958Z,0.00
2023-05-01T22:11:39.878Z,0.00
2023-05-01T22:12:40.072Z,0.00
2023-05-01T22:13:39.756Z,0.00
2023-05-01T22:17:05.303Z,0.00
2023-05-01T22:18:05.225Z,0.00
2023-05-01T22:19:05.130Z,0.00
2023-05-01T22:20:05.044Z,0.00
2023-05-01T22:21:04.952Z,0.00
